createdAt,value
2023-06-26T00:00:12.550Z,10.45
2023-06-26T00:03:16.271Z,10.25
2023-06-26T00:06:18.611Z,10.88
2023-06-26T00:09:20.953Z,10.73
2023-06-26T00:12:23.157Z,10.27
2023-06-26T00:15:25.551Z,10.35
2023-06-26T00:18:27.825Z,10.40
2023-06-26T00:21:30.041Z,8.43
2023-06-26T00:24:32.236Z,8.35
2023-06-26T00:27:34.641Z,10.00
2023-06-26T00:30:37.201Z,8.32
2023-06-26T00:33:39.673Z,9.55
2023-06-26T00:36:44.622Z,12.20
2023-06-26T00:39:47.008Z,10.35
2023-06-26T00:42:49.408Z,9.73
2023-06-26T00:45:51.725Z,10.40
2023-06-26T00:48:55.400Z,9.55
2023-06-26T00:51:57.922Z,11.18
2023-06-26T00:55:01.122Z,12.13
2023-06-26T00:58:03.711Z,10.73
2023-06-26T01:01:09.959Z,10.48
2023-06-26T01:04:18.947Z,10.75
2023-06-26T01:07:22.262Z,9.75
2023-06-26T01:10:25.200Z,10.70
2023-06-26T01:13:30.081Z,12.80
2023-06-26T01:16:32.596Z,10.40
2023-06-26T01:19:35.248Z,12.57
2023-06-26T01:23:03.645Z,12.70
2023-06-26T01:26:09.712Z,11.90
2023-06-26T01:29:12.960Z,11.83
2023-06-26T01:32:15.183Z,11.43
2023-06-26T01:35:17.550Z,13.68
2023-06-26T01:38:21.668Z,12.25
2023-06-26T01:41:24.106Z,12.48
2023-06-26T01:44:30.538Z,12.20
2023-06-26T01:47:34.687Z,12.05
2023-06-26T01:50:38.907Z,11.23
2023-06-26T01:53:46.498Z,11.27
2023-06-26T01:56:51.436Z,12.35
2023-06-26T01:59:56.660Z,12.83
2023-06-26T02:02:59.345Z,12.10
2023-06-26T02:06:01.661Z,13.35
2023-06-26T02:09:04.751Z,12.13
2023-06-26T02:12:07.932Z,11.85
2023-06-26T02:15:12.826Z,11.67
2023-06-26T02:18:15.730Z,12.27
2023-06-26T02:21:18.073Z,12.93
2023-06-26T02:24:20.446Z,13.32
2023-06-26T02:27:22.706Z,12.52
2023-06-26T02:30:24.996Z,12.67
2023-06-26T02:33:27.291Z,13.88
2023-06-26T02:36:29.527Z,14.05
2023-06-26T02:39:31.760Z,12.52
2023-06-26T02:42:35.643Z,14.43
2023-06-26T02:45:37.934Z,11.43
2023-06-26T02:48:40.255Z,11.82
2023-06-26T02:51:42.638Z,11.85
2023-06-26T02:54:51.451Z,15.73
2023-06-26T02:57:53.740Z,13.82
2023-06-26T03:00:57.690Z,17.03
2023-06-26T03:04:01.759Z,14.45
2023-06-26T03:07:04.991Z,14.68
2023-06-26T03:10:08.264Z,14.18
2023-06-26T03:13:10.566Z,15.90
2023-06-26T03:16:13.159Z,14.97
2023-06-26T03:19:15.698Z,15.02
2023-06-26T03:22:37.932Z,16.02
2023-06-26T03:25:40.297Z,13.27
2023-06-26T03:29:00.840Z,12.82
2023-06-26T03:32:03.554Z,15.87
2023-06-26T03:35:07.179Z,13.73
2023-06-26T03:38:12.737Z,13.25
2023-06-26T03:41:17.252Z,14.02
2023-06-26T03:44:19.488Z,14.90
2023-06-26T03:47:24.162Z,12.60
2023-06-26T03:50:26.610Z,13.98
2023-06-26T03:53:28.875Z,13.50
2023-06-26T03:56:31.235Z,13.63
2023-06-26T03:59:33.529Z,12.95
2023-06-26T04:02:36.410Z,12.57
2023-06-26T04:05:38.899Z,13.25
2023-06-26T04:08:41.298Z,12.65
2023-06-26T04:11:43.605Z,12.80
2023-06-26T04:14:45.856Z,12.50
2023-06-26T04:17:48.278Z,11.70
2023-06-26T04:21:12.998Z,9.30
2023-06-26T04:24:15.894Z,8.77
2023-06-26T04:27:19.096Z,8.18
2023-06-26T04:30:21.380Z,8.15
2023-06-26T04:33:24.581Z,7.30
2023-06-26T04:36:29.899Z,8.15
2023-06-26T04:39:32.161Z,8.10
2023-06-26T04:42:34.422Z,8.65
2023-06-26T04:45:37.160Z,8.27
2023-06-26T04:48:39.484Z,8.10
2023-06-26T04:51:41.830Z,7.90
2023-06-26T04:54:44.118Z,7.70
2023-06-26T04:57:46.776Z,9.45
2023-06-26T05:00:49.432Z,7.90
2023-06-26T05:03:51.791Z,7.20
2023-06-26T05:06:54.128Z,7.53
2023-06-26T05:09:56.403Z,7.25
2023-06-26T05:12:58.659Z,6.60
2023-06-26T05:16:01.151Z,6.88
2023-06-26T05:19:03.467Z,7.33
2023-06-26T05:22:08.789Z,8.75
2023-06-26T05:25:12.151Z,7.95
2023-06-26T05:28:16.675Z,8.43
2023-06-26T05:31:19.546Z,7.95
2023-06-26T05:34:26.817Z,7.50
2023-06-26T05:37:29.877Z,7.93
2023-06-26T05:40:32.342Z,7.97
2023-06-26T05:43:35.513Z,7.20
2023-06-26T05:46:42.489Z,7.75
2023-06-26T05:49:45.248Z,7.17
2023-06-26T05:52:47.920Z,7.90
2023-06-26T05:55:50.560Z,6.60
2023-06-26T05:58:53.452Z,6.97
2023-06-26T06:01:56.028Z,6.90
2023-06-26T06:04:59.329Z,6.10
2023-06-26T06:08:01.777Z,6.88
2023-06-26T06:11:04.338Z,6.60
2023-06-26T06:14:06.608Z,7.05
2023-06-26T06:17:08.860Z,6.55
2023-06-26T06:20:11.496Z,5.53
2023-06-26T06:23:13.744Z,5.80
2023-06-26T06:26:15.970Z,5.13
2023-06-26T06:29:20.170Z,5.28
2023-06-26T06:32:22.504Z,5.82
2023-06-26T06:35:28.133Z,5.93
2023-06-26T06:38:32.611Z,5.65
2023-06-26T06:41:37.238Z,6.07
2023-06-26T06:44:42.545Z,5.78
2023-06-26T06:47:46.538Z,7.07
2023-06-26T06:50:49.353Z,5.70
2023-06-26T06:53:51.671Z,5.80
2023-06-26T06:56:53.952Z,6.07
2023-06-26T06:59:56.552Z,6.47
2023-06-26T07:02:59.181Z,6.25
2023-06-26T07:06:01.723Z,5.47
2023-06-26T07:09:04.229Z,5.53
2023-06-26T07:12:06.790Z,5.72
2023-06-26T07:15:09.508Z,6.07
2023-06-26T07:18:11.971Z,6.30
2023-06-26T07:21:14.389Z,6.37
2023-06-26T07:24:17.728Z,5.93
2023-06-26T07:27:22.002Z,6.28
2023-06-26T07:30:25.912Z,6.47
2023-06-26T07:33:29.414Z,5.90
2023-06-26T07:36:32.053Z,6.23
2023-06-26T07:39:34.786Z,6.03
2023-06-26T07:42:37.630Z,6.28
2023-06-26T07:45:39.886Z,5.80
2023-06-26T07:48:42.121Z,6.60
2023-06-26T07:51:44.385Z,6.37
2023-06-26T07:54:47.703Z,7.15
2023-06-26T07:57:51.587Z,6.88
2023-06-26T08:00:53.860Z,6.53
2023-06-26T08:03:56.318Z,6.30
2023-06-26T08:06:59.947Z,6.90
2023-06-26T08:10:02.667Z,6.10
2023-06-26T08:13:05.074Z,8.02
2023-06-26T08:16:07.442Z,7.07
2023-06-26T08:19:11.372Z,6.45
2023-06-26T08:22:14.669Z,7.10
2023-06-26T08:25:18.092Z,7.00
2023-06-26T08:28:21.685Z,6.30
2023-06-26T08:31:25.327Z,6.72
2023-06-26T08:34:28.998Z,6.82
2023-06-26T08:37:34.166Z,7.13
2023-06-26T08:40:39.224Z,7.60
2023-06-26T08:43:43.604Z,6.28
2023-06-26T08:46:47.479Z,6.00
2023-06-26T08:50:01.473Z,6.43
2023-06-26T08:53:45.209Z,5.90
2023-06-26T08:56:50.045Z,6.47
2023-06-26T08:59:54.256Z,6.53
2023-06-26T09:02:58.576Z,5.55
2023-06-26T09:06:01.670Z,7.78
2023-06-26T09:09:05.484Z,7.40
2023-06-26T09:12:10.942Z,6.50
2023-06-26T09:15:16.502Z,6.32
2023-06-26T09:18:25.636Z,6.13
2023-06-26T09:21:31.388Z,6.35
2023-06-26T09:24:34.143Z,7.97
2023-06-26T09:27:37.474Z,6.63
2023-06-26T09:30:40.370Z,6.93
2023-06-26T09:33:44.059Z,6.20
2023-06-26T09:36:54.292Z,7.05
2023-06-26T09:39:56.690Z,6.23
2023-06-26T09:43:06.492Z,6.32
2023-06-26T09:46:09.190Z,7.28
2023-06-26T09:49:12.676Z,7.80
2023-06-26T09:52:18.627Z,6.22
2023-06-26T09:55:22.856Z,6.27
2023-06-26T09:58:25.687Z,6.22
2023-06-26T10:01:28.642Z,7.10
2023-06-26T10:04:36.364Z,7.20
2023-06-26T10:07:39.561Z,6.15
2023-06-26T10:10:44.687Z,6.20
2023-06-26T10:17:08.691Z,6.68
2023-06-26T10:20:11.700Z,6.22
2023-06-26T10:23:15.360Z,7.35
2023-06-26T10:26:18.413Z,5.93
2023-06-26T10:29:24.957Z,6.93
2023-06-26T10:32:27.914Z,6.38
2023-06-26T10:35:31.849Z,5.65
2023-06-26T10:38:53.020Z,6.82
2023-06-26T10:42:04.943Z,6.17
2023-06-26T10:45:25.431Z,6.40
2023-06-26T10:48:30.689Z,7.07
2023-06-26T10:51:35.831Z,5.88
2023-06-26T10:54:38.517Z,7.03
2023-06-26T10:57:45.468Z,6.50
2023-06-26T11:00:51.565Z,5.82
2023-06-26T11:04:09.603Z,6.40
2023-06-26T11:07:23.532Z,5.95
2023-06-26T11:10:26.922Z,6.20
2023-06-26T11:13:36.903Z,7.60
2023-06-26T11:16:43.990Z,6.55
2023-06-26T11:19:51.195Z,6.97
2023-06-26T11:22:54.895Z,6.97
2023-06-26T11:25:58.605Z,5.90
2023-06-26T11:29:02.206Z,5.60
2023-06-26T11:32:07.471Z,6.18
2023-06-26T11:35:11.471Z,6.28
2023-06-26T11:38:15.078Z,6.15
2023-06-26T11:41:19.734Z,7.03
2023-06-26T11:44:31.603Z,6.30
2023-06-26T11:47:36.472Z,5.80
2023-06-26T11:50:40.735Z,7.78
2023-06-26T11:53:46.025Z,5.82
2023-06-26T11:57:01.344Z,6.35
2023-06-26T12:00:15.634Z,6.27
2023-06-26T12:03:19.225Z,5.70
2023-06-26T12:06:22.768Z,5.93
2023-06-26T12:09:31.583Z,5.90
2023-06-26T12:12:35.388Z,7.55
2023-06-26T12:15:42.691Z,5.43
2023-06-26T12:18:46.183Z,5.75
2023-06-26T12:21:55.745Z,6.55
2023-06-26T12:25:02.502Z,6.93
2023-06-26T12:28:19.959Z,5.82
2023-06-26T12:31:29.003Z,8.17
2023-06-26T12:34:39.481Z,5.80
2023-06-26T12:37:45.040Z,6.32
2023-06-26T12:40:47.977Z,6.18
2023-06-26T12:43:51.560Z,6.38
2023-06-26T12:47:04.079Z,6.23
2023-06-26T12:50:07.481Z,6.55
2023-06-26T12:53:11.110Z,7.20
2023-06-26T12:56:14.706Z,5.95
2023-06-26T12:59:19.452Z,6.82
2023-06-26T13:02:23.121Z,6.37
2023-06-26T13:05:27.892Z,6.22
2023-06-26T13:08:35.067Z,7.03
2023-06-26T13:11:43.181Z,6.50
2023-06-26T13:14:45.766Z,5.90
2023-06-26T13:17:52.540Z,6.33
2023-06-26T13:20:55.125Z,6.30
2023-06-26T13:23:57.769Z,6.38
2023-06-26T13:27:00.384Z,6.25
2023-06-26T13:30:03.539Z,5.95
2023-06-26T13:33:05.966Z,5.80
2023-06-26T13:36:08.590Z,6.28
2023-06-26T13:39:13.646Z,5.68
2023-06-26T13:42:16.865Z,5.70
2023-06-26T13:48:29.032Z,5.60
2023-06-26T13:51:31.661Z,5.45
2023-06-26T13:54:35.187Z,5.63
2023-06-26T13:57:42.892Z,6.35
2023-06-26T14:00:49.638Z,5.82
2023-06-26T14:03:53.898Z,5.83
2023-06-26T14:06:56.264Z,6.05
2023-06-26T14:09:58.628Z,6.18
2023-06-26T14:13:01.772Z,6.40
2023-06-26T14:16:04.246Z,6.07
2023-06-26T14:19:06.632Z,5.90
2023-06-26T14:22:09.126Z,5.85
2023-06-26T14:25:12.125Z,5.55
2023-06-26T14:28:20.026Z,5.15
2023-06-26T14:31:22.568Z,6.53
2023-06-26T14:34:25.273Z,6.70
2023-06-26T14:37:30.972Z,5.95
2023-06-26T14:40:33.355Z,6.18
2023-06-26T14:43:36.366Z,7.22
2023-06-26T14:46:39.214Z,6.22
2023-06-26T14:49:41.607Z,6.20
2023-06-26T14:52:43.937Z,7.20
2023-06-26T14:55:46.289Z,6.45
2023-06-26T14:58:49.273Z,6.95
2023-06-26T15:01:51.984Z,5.35
2023-06-26T15:04:56.824Z,6.90
2023-06-26T15:07:59.335Z,6.95
2023-06-26T15:11:03.015Z,7.30
2023-06-26T15:14:05.556Z,5.32
2023-06-26T15:17:08.012Z,6.70
2023-06-26T15:20:10.707Z,5.93
2023-06-26T15:23:13.215Z,5.20
2023-06-26T15:26:18.083Z,7.53
2023-06-26T15:29:20.515Z,6.22
2023-06-26T15:32:22.856Z,5.53
2023-06-26T15:35:25.496Z,5.43
2023-06-26T15:38:27.874Z,6.43
2023-06-26T15:41:31.023Z,5.10
2023-06-26T15:44:34.215Z,5.85
2023-06-26T15:47:37.747Z,5.97
2023-06-26T15:50:40.816Z,5.63
2023-06-26T15:53:44.836Z,5.47
2023-06-26T15:56:48.432Z,5.55
2023-06-26T15:59:51.732Z,5.05
2023-06-26T16:02:55.163Z,5.40
2023-06-26T16:05:58.535Z,4.63
2023-06-26T16:09:01.833Z,4.97
2023-06-26T16:12:05.686Z,5.15
2023-06-26T16:15:09.851Z,4.70
2023-06-26T16:18:13.585Z,5.20
2023-06-26T16:21:17.802Z,5.27
2023-06-26T16:24:20.770Z,5.25
2023-06-26T16:27:23.192Z,4.88
2023-06-26T16:30:25.792Z,5.03
2023-06-26T16:33:28.199Z,4.90
2023-06-26T16:36:30.703Z,5.03
2023-06-26T16:39:33.025Z,5.72
2023-06-26T16:42:35.517Z,5.30
2023-06-26T16:45:37.881Z,5.20
2023-06-26T16:48:40.217Z,5.35
2023-06-26T16:51:42.673Z,5.53
2023-06-26T16:54:45.095Z,5.15
2023-06-26T16:57:47.755Z,5.35
2023-06-26T17:00:52.191Z,5.65
2023-06-26T17:03:55.929Z,6.30
2023-06-26T17:06:59.988Z,5.50
2023-06-26T17:10:02.630Z,5.80
2023-06-26T17:13:05.404Z,5.72
2023-06-26T17:16:08.004Z,5.68
2023-06-26T17:19:14.270Z,5.13
2023-06-26T17:22:16.732Z,6.03
2023-06-26T17:25:19.802Z,6.40
2023-06-26T17:28:22.885Z,5.35
2023-06-26T17:31:26.142Z,6.03
2023-06-26T17:34:29.872Z,5.18
2023-06-26T17:37:33.280Z,5.57
2023-06-26T17:40:36.817Z,5.53
2023-06-26T17:43:39.618Z,5.55
2023-06-26T17:46:42.077Z,6.15
2023-06-26T17:49:44.527Z,5.18
2023-06-26T17:52:47.003Z,5.80
2023-06-26T17:55:50.235Z,5.80
2023-06-26T17:58:53.436Z,7.00
2023-06-26T18:01:59.801Z,6.80
2023-06-26T18:05:02.496Z,5.85
2023-06-26T18:08:05.564Z,5.47
2023-06-26T18:11:08.313Z,5.97
2023-06-26T18:14:12.802Z,6.43
2023-06-26T18:17:18.091Z,5.78
2023-06-26T18:20:21.488Z,6.90
2023-06-26T18:23:23.997Z,7.63
2023-06-26T18:26:26.420Z,6.38
2023-06-26T18:29:29.439Z,7.05
2023-06-26T18:32:33.442Z,8.98
2023-06-26T18:35:37.588Z,5.57
2023-06-26T18:38:41.537Z,6.47
2023-06-26T18:41:45.472Z,6.57
2023-06-26T18:44:49.893Z,6.50
2023-06-26T18:47:54.119Z,6.38
2023-06-26T18:50:57.378Z,6.78
2023-06-26T18:54:03.269Z,6.63
2023-06-26T18:57:06.081Z,6.78
2023-06-26T19:00:10.307Z,6.57
2023-06-26T19:03:13.838Z,5.93
2023-06-26T19:06:16.818Z,7.72
2023-06-26T19:09:20.097Z,7.13
2023-06-26T19:12:24.984Z,6.35
2023-06-26T19:15:27.492Z,6.28
2023-06-26T19:18:30.409Z,6.43
2023-06-26T19:21:33.017Z,7.47
2023-06-26T19:24:35.300Z,6.37
2023-06-26T19:27:39.526Z,6.47
2023-06-26T19:30:42.234Z,7.05
2023-06-26T19:33:44.653Z,6.60
2023-06-26T19:36:47.461Z,6.38
2023-06-26T19:39:50.046Z,7.27
2023-06-26T19:42:52.469Z,7.55
2023-06-26T19:45:54.903Z,6.53
2023-06-26T19:49:00.245Z,6.25
2023-06-26T19:52:03.240Z,6.65
2023-06-26T19:55:06.312Z,7.73
2023-06-26T19:58:08.709Z,7.25
2023-06-26T20:01:11.367Z,8.57
2023-06-26T20:04:16.525Z,7.97
2023-06-26T20:07:19.337Z,7.22
2023-06-26T20:10:22.005Z,7.57
2023-06-26T20:13:26.402Z,7.07
2023-06-26T20:16:29.702Z,6.95
2023-06-26T20:19:32.813Z,7.07
2023-06-26T20:22:35.087Z,6.97
2023-06-26T20:25:38.293Z,7.17
2023-06-26T20:28:40.880Z,7.13
2023-06-26T20:31:43.190Z,7.53
2023-06-26T20:34:45.564Z,7.30
2023-06-26T20:37:49.505Z,8.70
2023-06-26T20:40:52.107Z,7.07
2023-06-26T20:43:54.835Z,6.45
2023-06-26T20:46:59.925Z,6.43
2023-06-26T20:50:03.240Z,7.95
2023-06-26T20:53:06.063Z,7.30
2023-06-26T20:56:08.750Z,6.80
2023-06-26T20:59:11.210Z,6.95
2023-06-26T21:02:13.578Z,8.45
2023-06-26T21:05:15.892Z,6.72
2023-06-26T21:08:18.174Z,9.27
2023-06-26T21:11:20.673Z,7.10
2023-06-26T21:14:23.004Z,9.40
2023-06-26T21:17:25.327Z,6.90
2023-06-26T21:20:27.685Z,9.07
2023-06-26T21:23:29.985Z,7.68
2023-06-26T21:26:32.308Z,8.10
2023-06-26T21:29:34.561Z,7.07
2023-06-26T21:32:36.914Z,7.78
2023-06-26T21:35:43.876Z,8.07
2023-06-26T21:38:46.724Z,8.32
2023-06-26T21:41:49.011Z,7.67
2023-06-26T21:44:51.321Z,8.18
2023-06-26T21:47:53.573Z,8.75
2023-06-26T21:50:55.852Z,7.93
2023-06-26T21:53:58.782Z,8.10
2023-06-26T21:57:01.049Z,7.13
2023-06-26T22:00:05.702Z,9.65
2023-06-26T22:03:09.512Z,8.00
2023-06-26T22:06:11.819Z,8.13
2023-06-26T22:09:17.100Z,7.90
2023-06-26T22:12:19.313Z,9.67
2023-06-26T22:15:21.526Z,8.43
2023-06-26T22:18:23.732Z,9.80
2023-06-26T22:21:26.000Z,9.55
2023-06-26T22:24:28.336Z,7.80
2023-06-26T22:27:30.550Z,8.13
2023-06-26T22:30:32.839Z,8.25
2023-06-26T22:33:35.139Z,7.57
2023-06-26T22:36:37.388Z,7.57
2023-06-26T22:39:39.811Z,7.35
2023-06-26T22:42:42.218Z,7.40
2023-06-26T22:45:44.456Z,7.95
2023-06-26T22:48:46.879Z,7.60
2023-06-26T22:51:49.174Z,8.57
2023-06-26T22:54:51.391Z,6.85
2023-06-26T22:57:53.576Z,9.37
2023-06-26T23:01:00.745Z,8.95
2023-06-26T23:04:03.872Z,8.30
2023-06-26T23:07:07.126Z,8.52
2023-06-26T23:10:10.047Z,7.97
2023-06-26T23:13:12.276Z,7.90
2023-06-26T23:16:14.946Z,8.45
2023-06-26T23:19:17.175Z,8.43
2023-06-26T23:22:21.309Z,8.70
2023-06-26T23:25:34.254Z,6.97
2023-06-26T23:28:36.489Z,7.70
2023-06-26T23:31:39.968Z,7.55
2023-06-26T23:34:42.340Z,10.10
2023-06-26T23:37:44.610Z,7.68
2023-06-26T23:40:46.890Z,7.97
2023-06-26T23:43:49.095Z,7.33
2023-06-26T23:46:51.397Z,7.45
2023-06-26T23:49:53.620Z,6.43
2023-06-26T23:52:55.816Z,7.60
2023-06-26T23:55:58.140Z,5.95
2023-06-26T23:59:00.674Z,6.47
